createdAt,value
2023-04-14T00:01:16.885Z,1.89
2023-04-14T00:03:44.391Z,1.90
2023-04-14T00:06:11.988Z,1.89
2023-04-14T00:08:39.421Z,1.98
2023-04-14T00:11:06.814Z,2.04
2023-04-14T00:13:34.410Z,1.99
2023-04-14T00:16:01.835Z,1.82
2023-04-14T00:18:32.853Z,1.87
2023-04-14T00:21:01.007Z,2.01
2023-04-14T00:23:28.365Z,1.97
2023-04-14T00:25:56.106Z,1.97
2023-04-14T00:28:23.482Z,2.00
2023-04-14T00:30:50.967Z,1.96
2023-04-14T00:33:19.451Z,1.99
2023-04-14T00:35:48.178Z,1.97
2023-04-14T00:38:15.621Z,1.87
2023-04-14T00:40:42.991Z,1.88
2023-04-14T00:43:10.355Z,1.87
2023-04-14T00:45:45.633Z,1.75
2023-04-14T00:48:14.520Z,1.70
2023-04-14T00:50:42.165Z,1.64
2023-04-14T00:53:12.555Z,1.63
2023-04-14T00:55:41.230Z,1.49
2023-04-14T00:58:09.634Z,1.35
2023-04-14T01:00:38.097Z,1.49
2023-04-14T01:03:07.059Z,1.35
2023-04-14T01:05:34.728Z,1.33
2023-04-14T01:08:03.264Z,1.10
2023-04-14T01:10:47.776Z,1.00
2023-04-14T01:13:33.328Z,1.00
2023-04-14T01:16:04.200Z,0.96
2023-04-14T01:18:42.120Z,0.93
2023-04-14T01:21:14.982Z,0.97
2023-04-14T01:23:48.441Z,0.98
2023-04-14T01:26:30.308Z,0.99
2023-04-14T01:29:18.727Z,1.13
2023-04-14T01:31:49.994Z,1.23
2023-04-14T01:34:23.266Z,1.06
2023-04-14T01:36:56.520Z,0.98
2023-04-14T01:39:27.465Z,0.93
2023-04-14T01:41:58.092Z,0.72
2023-04-14T01:44:26.873Z,0.78
2023-04-14T01:47:01.026Z,0.95
2023-04-14T01:49:30.462Z,1.12
2023-04-14T01:51:57.847Z,1.18
2023-04-14T01:54:25.822Z,1.14
2023-04-14T01:56:54.457Z,1.15
2023-04-14T01:59:23.779Z,1.17
2023-04-14T02:01:52.309Z,1.16
2023-04-14T02:04:23.696Z,1.14
2023-04-14T02:06:52.444Z,1.05
2023-04-14T02:09:21.786Z,0.91
2023-04-14T02:11:51.093Z,0.91
2023-04-14T02:14:20.124Z,0.80
2023-04-14T02:16:49.586Z,0.68
2023-04-14T02:19:19.717Z,0.57
2023-04-14T02:21:50.368Z,0.61
2023-04-14T02:24:18.671Z,0.68
2023-04-14T02:26:54.232Z,0.56
2023-04-14T02:29:23.204Z,0.69
2023-04-14T02:31:55.912Z,0.73
2023-04-14T02:34:29.077Z,0.77
2023-04-14T02:36:59.059Z,0.82
2023-04-14T02:39:31.918Z,0.77
2023-04-14T02:42:02.607Z,0.76
2023-04-14T02:44:35.282Z,0.66
2023-04-14T02:47:07.372Z,0.80
2023-04-14T02:49:37.879Z,0.87
2023-04-14T02:52:07.901Z,0.70
2023-04-14T02:54:37.497Z,0.72
2023-04-14T02:57:05.384Z,0.68
2023-04-14T02:59:34.287Z,0.57
2023-04-14T03:02:06.017Z,0.56
2023-04-14T03:04:35.728Z,0.56
2023-04-14T03:07:07.378Z,0.57
2023-04-14T03:09:37.091Z,0.59
2023-04-14T03:12:06.366Z,0.61
2023-04-14T03:14:35.151Z,0.61
2023-04-14T03:17:03.707Z,0.62
2023-04-14T03:19:33.790Z,0.65
2023-04-14T03:22:03.664Z,0.55
2023-04-14T03:24:32.523Z,0.46
2023-04-14T03:27:03.273Z,0.48
2023-04-14T03:29:37.712Z,0.42
2023-04-14T03:32:07.786Z,0.30
2023-04-14T03:34:38.517Z,0.07
2023-04-14T03:37:06.975Z,-0.07
2023-04-14T03:39:37.408Z,-0.19
2023-04-14T03:42:07.945Z,-0.26
2023-04-14T03:44:36.571Z,-0.16
2023-04-14T03:47:05.055Z,-0.23
2023-04-14T03:49:36.169Z,-0.27
2023-04-14T03:52:07.618Z,-0.29
2023-04-14T03:54:37.332Z,-0.19
2023-04-14T03:57:08.795Z,-0.12
2023-04-14T03:59:37.699Z,0.01
2023-04-14T04:02:05.958Z,-0.13
2023-04-14T04:04:34.741Z,-0.15
2023-04-14T04:07:02.562Z,-0.18
2023-04-14T04:09:32.137Z,-0.16
2023-04-14T04:12:02.034Z,-0.24
2023-04-14T04:14:32.020Z,-0.25
2023-04-14T04:17:05.258Z,-0.18
2023-04-14T04:19:34.909Z,0.00
2023-04-14T04:22:03.145Z,-0.04
2023-04-14T04:24:37.612Z,-0.06
2023-04-14T04:27:09.849Z,-0.34
2023-04-14T04:29:43.504Z,-0.21
2023-04-14T04:32:11.172Z,-0.07
2023-04-14T04:34:39.948Z,-0.08
2023-04-14T04:37:07.955Z,-0.15
2023-04-14T04:39:35.464Z,-0.23
2023-04-14T04:42:03.978Z,-0.30
2023-04-14T04:44:32.591Z,-0.13
2023-04-14T04:47:01.788Z,-0.17
2023-04-14T04:49:30.068Z,-0.06
2023-04-14T04:51:57.508Z,0.05
2023-04-14T04:54:28.151Z,0.31
2023-04-14T04:56:56.486Z,0.36
2023-04-14T04:59:24.037Z,0.35
2023-04-14T05:01:51.623Z,0.32
2023-04-14T05:04:20.448Z,0.29
2023-04-14T05:06:48.018Z,0.26
2023-04-14T05:09:15.634Z,0.32
2023-04-14T05:11:43.248Z,0.49
2023-04-14T05:14:10.688Z,0.70
2023-04-14T05:16:38.051Z,0.83
2023-04-14T05:19:05.424Z,0.98
2023-04-14T05:21:34.154Z,1.12
2023-04-14T05:24:01.818Z,1.42
2023-04-14T05:28:59.684Z,1.51
2023-04-14T05:31:27.373Z,1.73
2023-04-14T05:33:54.806Z,1.90
2023-04-14T05:36:22.218Z,1.91
2023-04-14T05:38:51.149Z,1.91
2023-04-14T05:41:18.510Z,2.17
2023-04-14T05:43:45.895Z,2.21
2023-04-14T05:46:13.356Z,2.28
2023-04-14T05:48:41.376Z,2.36
2023-04-14T05:51:08.747Z,2.51
2023-04-14T05:53:36.394Z,2.80
2023-04-14T05:56:05.749Z,3.01
2023-04-14T05:58:33.102Z,3.27
2023-04-14T06:01:00.606Z,3.42
2023-04-14T06:03:28.410Z,3.64
2023-04-14T06:05:56.509Z,3.83
2023-04-14T06:08:25.307Z,3.93
2023-04-14T06:10:52.716Z,3.91
2023-04-14T06:13:22.953Z,4.13
2023-04-14T06:15:50.794Z,4.19
2023-04-14T06:18:18.197Z,4.32
2023-04-14T06:20:46.280Z,4.49
2023-04-14T06:23:13.659Z,4.75
2023-04-14T06:25:41.254Z,4.74
2023-04-14T06:28:08.864Z,4.82
2023-04-14T06:30:37.599Z,5.08
2023-04-14T06:33:05.715Z,5.35
2023-04-14T06:35:34.933Z,5.36
2023-04-14T06:38:02.605Z,5.44
2023-04-14T06:40:30.397Z,5.52
2023-04-14T06:42:57.781Z,5.78
2023-04-14T06:45:25.328Z,5.92
2023-04-14T06:47:54.193Z,5.96
2023-04-14T06:50:21.569Z,6.15
2023-04-14T06:52:48.922Z,6.37
2023-04-14T06:55:16.378Z,6.73
2023-04-14T06:57:43.743Z,6.95
2023-04-14T07:00:12.344Z,6.90
2023-04-14T07:02:40.027Z,6.85
2023-04-14T07:05:09.579Z,6.86
2023-04-14T07:07:37.428Z,7.16
2023-04-14T07:10:05.398Z,7.29
2023-04-14T07:12:34.564Z,7.37
2023-04-14T07:15:01.996Z,7.14
2023-04-14T07:17:30.577Z,7.32
2023-04-14T07:19:58.121Z,7.78
2023-04-14T07:22:26.815Z,7.93
2023-04-14T07:24:54.386Z,8.25
2023-04-14T07:27:21.887Z,8.51
2023-04-14T07:29:49.332Z,8.98
2023-04-14T07:32:16.768Z,9.43
2023-04-14T07:34:44.291Z,9.52
2023-04-14T07:37:12.082Z,9.82
2023-04-14T07:39:41.392Z,9.94
2023-04-14T07:42:09.018Z,10.09
2023-04-14T07:44:36.438Z,10.26
2023-04-14T07:47:03.876Z,10.27
2023-04-14T07:49:32.356Z,10.00
2023-04-14T07:52:00.344Z,10.21
2023-04-14T07:54:27.763Z,10.65
2023-04-14T07:56:56.881Z,11.13
2023-04-14T07:59:24.365Z,11.89
2023-04-14T08:01:51.915Z,11.84
2023-04-14T08:04:19.401Z,12.18
2023-04-14T08:06:47.160Z,12.03
2023-04-14T08:09:14.733Z,12.60
2023-04-14T08:11:42.130Z,13.03
2023-04-14T08:14:11.055Z,13.17
2023-04-14T08:16:38.684Z,13.53
2023-04-14T08:19:06.188Z,13.80
2023-04-14T08:21:33.713Z,13.98
2023-04-14T08:24:01.363Z,14.23
2023-04-14T08:28:58.893Z,14.56
2023-04-14T08:31:27.855Z,14.58
2023-04-14T08:33:55.510Z,14.82
2023-04-14T08:36:22.921Z,14.80
2023-04-14T08:38:50.890Z,15.07
2023-04-14T08:41:21.185Z,15.09
2023-04-14T08:43:48.568Z,15.44
2023-04-14T08:46:16.617Z,15.55
2023-04-14T08:48:47.742Z,16.06
2023-04-14T08:51:22.143Z,16.41
2023-04-14T08:53:51.477Z,16.12
2023-04-14T08:56:19.762Z,15.96
2023-04-14T08:58:48.948Z,15.80
2023-04-14T09:01:16.718Z,16.12
2023-04-14T09:03:46.122Z,16.88
2023-04-14T09:06:14.860Z,17.54
2023-04-14T09:08:42.330Z,18.15
2023-04-14T09:11:11.273Z,18.23
2023-04-14T09:13:39.966Z,18.75
2023-04-14T09:16:11.112Z,18.66
2023-04-14T09:18:38.604Z,19.20
2023-04-14T09:21:49.762Z,19.62
2023-04-14T09:23:57.779Z,19.79
2023-04-14T09:26:27.557Z,19.77
2023-04-14T09:28:54.946Z,20.13
2023-04-14T09:31:22.382Z,19.74
2023-04-14T09:33:51.175Z,19.92
2023-04-14T09:36:21.062Z,20.22
2023-04-14T09:38:49.747Z,20.05
2023-04-14T09:41:17.834Z,20.05
2023-04-14T09:43:47.034Z,19.68
2023-04-14T09:46:15.452Z,18.99
2023-04-14T09:48:52.061Z,19.38
2023-04-14T09:51:24.297Z,18.78
2023-04-14T09:53:54.019Z,17.50
2023-04-14T09:56:26.612Z,17.67
2023-04-14T09:58:59.502Z,16.90
2023-04-14T10:01:31.229Z,17.21
2023-04-14T10:03:58.844Z,17.30
2023-04-14T10:06:27.877Z,17.47
2023-04-14T10:09:00.019Z,17.85
2023-04-14T10:11:30.180Z,17.82
2023-04-14T10:13:59.309Z,17.87
2023-04-14T10:16:27.517Z,17.49
2023-04-14T10:18:57.448Z,17.66
2023-04-14T10:21:25.547Z,18.24
2023-04-14T10:23:56.797Z,18.81
2023-04-14T10:26:24.175Z,19.99
2023-04-14T10:28:56.614Z,20.85
2023-04-14T10:31:27.692Z,19.63
2023-04-14T10:33:55.690Z,18.54
2023-04-14T10:36:27.790Z,18.43
2023-04-14T10:39:02.198Z,19.80
2023-04-14T10:41:45.811Z,20.90
2023-04-14T10:44:22.910Z,20.40
2023-04-14T10:46:50.900Z,19.77
2023-04-14T10:49:19.059Z,20.07
2023-04-14T10:51:49.937Z,20.10
2023-04-14T10:54:19.677Z,20.71
2023-04-14T10:57:10.028Z,20.42
2023-04-14T10:59:41.288Z,19.73
2023-04-14T11:02:23.356Z,18.45
2023-04-14T11:05:02.217Z,17.43
2023-04-14T11:07:30.216Z,16.88
2023-04-14T11:10:04.986Z,16.57
2023-04-14T11:12:32.631Z,16.36
2023-04-14T11:15:03.678Z,16.53
2023-04-14T11:17:32.991Z,16.89
2023-04-14T11:20:01.202Z,19.17
2023-04-14T11:22:38.302Z,19.87
2023-04-14T11:25:08.244Z,19.22
2023-04-14T11:27:36.079Z,18.54
2023-04-14T11:30:04.157Z,18.08
2023-04-14T11:32:32.560Z,19.25
2023-04-14T11:35:08.403Z,21.80
2023-04-14T11:37:38.145Z,23.48
2023-04-14T11:40:10.537Z,24.62
2023-04-14T11:42:40.423Z,25.43
2023-04-14T11:45:09.017Z,26.02
2023-04-14T11:47:36.605Z,25.57
2023-04-14T11:50:05.631Z,25.82
2023-04-14T11:52:34.406Z,26.44
2023-04-14T11:55:02.525Z,26.77
2023-04-14T11:57:31.276Z,27.66
2023-04-14T11:59:58.695Z,26.46
2023-04-14T12:02:26.300Z,25.67
2023-04-14T12:04:54.127Z,26.06
2023-04-14T12:07:23.457Z,24.90
2023-04-14T12:09:51.465Z,22.95
2023-04-14T12:12:20.049Z,21.95
2023-04-14T12:14:50.321Z,21.46
2023-04-14T12:17:20.264Z,20.93
2023-04-14T12:19:48.793Z,20.57
2023-04-14T12:22:24.144Z,20.20
2023-04-14T12:24:51.883Z,19.92
2023-04-14T12:27:19.644Z,19.59
2023-04-14T12:29:49.550Z,19.70
2023-04-14T12:32:18.973Z,20.36
2023-04-14T12:34:57.690Z,20.47
2023-04-14T12:37:27.085Z,21.18
2023-04-14T12:39:58.576Z,24.52
2023-04-14T12:42:26.618Z,26.68
2023-04-14T12:44:58.698Z,29.41
2023-04-14T12:47:31.985Z,30.48
2023-04-14T12:50:00.489Z,32.00
2023-04-14T12:52:35.968Z,31.82
2023-04-14T12:55:04.718Z,31.97
2023-04-14T12:57:32.770Z,31.89
2023-04-14T13:00:00.773Z,33.72
2023-04-14T13:02:32.157Z,34.16
2023-04-14T13:05:00.003Z,35.26
2023-04-14T13:07:27.364Z,34.60
2023-04-14T13:09:54.731Z,35.29
2023-04-14T13:12:22.445Z,36.09
2023-04-14T13:14:49.925Z,36.83
2023-04-14T13:17:17.361Z,36.30
2023-04-14T13:19:46.372Z,34.91
2023-04-14T13:22:14.742Z,34.23
2023-04-14T13:24:42.146Z,31.71
2023-04-14T13:27:09.598Z,34.40
2023-04-14T13:29:36.969Z,33.43
2023-04-14T13:32:04.673Z,31.58
2023-04-14T13:34:32.488Z,29.29
2023-04-14T13:37:01.176Z,28.33
2023-04-14T13:39:28.626Z,28.42
2023-04-14T13:41:56.421Z,28.28
2023-04-14T13:44:24.361Z,29.18
2023-04-14T13:46:52.271Z,31.07
2023-04-14T13:49:19.793Z,31.52
2023-04-14T13:51:47.565Z,31.47
2023-04-14T13:54:16.276Z,28.43
2023-04-14T13:56:43.784Z,26.53
2023-04-14T13:59:11.421Z,26.65
2023-04-14T14:01:38.896Z,28.92
2023-04-14T14:04:07.392Z,29.34
2023-04-14T14:06:34.891Z,27.63
2023-04-14T14:09:06.030Z,27.83
2023-04-14T14:11:36.522Z,30.67
2023-04-14T14:14:04.151Z,32.10
2023-04-14T14:16:36.933Z,29.17
2023-04-14T14:19:05.373Z,28.59
2023-04-14T14:21:32.755Z,27.05
2023-04-14T14:24:00.979Z,25.72
2023-04-14T14:26:28.778Z,25.60
2023-04-14T14:28:57.525Z,24.58
2023-04-14T14:31:24.924Z,23.02
2023-04-14T14:33:52.437Z,22.36
2023-04-14T14:36:19.829Z,22.76
2023-04-14T14:38:47.512Z,21.89
2023-04-14T14:41:14.903Z,20.24
2023-04-14T14:43:42.253Z,20.47
2023-04-14T14:46:12.531Z,24.83
2023-04-14T14:48:39.993Z,27.92
2023-04-14T14:51:07.391Z,28.47
2023-04-14T14:53:35.386Z,30.23
2023-04-14T14:56:02.901Z,31.05
2023-04-14T14:58:30.451Z,28.88
2023-04-14T15:00:57.833Z,28.96
2023-04-14T15:03:26.678Z,30.30
2023-04-14T15:05:54.342Z,28.78
2023-04-14T15:08:21.794Z,27.32
2023-04-14T15:10:49.375Z,27.93
2023-04-14T15:13:17.032Z,27.41
2023-04-14T15:15:44.757Z,24.17
2023-04-14T15:18:12.165Z,25.40
2023-04-14T15:20:43.838Z,26.81
2023-04-14T15:23:11.225Z,27.66
2023-04-14T15:25:38.604Z,28.04
2023-04-14T15:28:06.020Z,26.35
2023-04-14T15:30:33.874Z,27.82
2023-04-14T15:33:01.682Z,27.81
2023-04-14T15:35:29.092Z,27.08
2023-04-14T15:37:57.887Z,26.55
2023-04-14T15:40:25.283Z,28.03
2023-04-14T15:42:53.616Z,28.12
2023-04-14T15:45:21.481Z,26.97
2023-04-14T15:47:49.159Z,26.95
2023-04-14T15:50:18.617Z,28.05
2023-04-14T15:52:46.384Z,28.06
2023-04-14T15:55:15.487Z,27.02
2023-04-14T15:57:42.875Z,24.86
2023-04-14T16:00:11.811Z,26.41
2023-04-14T16:02:39.429Z,28.17
2023-04-14T16:05:08.333Z,28.71
2023-04-14T16:07:35.881Z,28.21
2023-04-14T16:10:04.923Z,27.73
2023-04-14T16:12:36.730Z,27.61
2023-04-14T16:15:07.748Z,27.85
2023-04-14T16:17:35.605Z,28.04
2023-04-14T16:20:03.515Z,27.15
2023-04-14T16:22:31.161Z,27.27
2023-04-14T16:24:58.687Z,27.03
2023-04-14T16:27:27.616Z,27.83
2023-04-14T16:29:56.359Z,26.89
2023-04-14T16:32:23.715Z,25.98
2023-04-14T16:34:51.395Z,26.63
2023-04-14T16:37:21.258Z,26.68
2023-04-14T16:39:48.795Z,27.90
2023-04-14T16:42:18.619Z,26.72
2023-04-14T16:44:46.001Z,26.01
2023-04-14T16:47:14.703Z,25.19
2023-04-14T16:49:42.209Z,25.40
2023-04-14T16:52:09.597Z,24.06
2023-04-14T16:54:37.650Z,23.65
2023-04-14T16:57:05.378Z,23.36
2023-04-14T16:59:32.825Z,21.98
2023-04-14T17:02:01.052Z,22.02
2023-04-14T17:04:30.394Z,21.25
2023-04-14T17:06:58.049Z,21.16
2023-04-14T17:09:25.660Z,20.98
2023-04-14T17:11:53.100Z,21.15
2023-04-14T17:14:20.609Z,22.31
2023-04-14T17:16:48.022Z,21.38
2023-04-14T17:19:16.861Z,22.22
2023-04-14T17:21:45.872Z,22.25
2023-04-14T17:24:13.476Z,23.17
2023-04-14T17:26:41.059Z,23.27
2023-04-14T17:29:09.422Z,23.80
2023-04-14T17:31:38.582Z,24.27
2023-04-14T17:34:10.566Z,23.48
2023-04-14T17:36:38.404Z,22.33
2023-04-14T17:39:08.090Z,20.88
2023-04-14T17:41:35.574Z,19.30
2023-04-14T17:44:03.136Z,18.11
2023-04-14T17:46:33.575Z,17.08
2023-04-14T17:49:01.737Z,16.22
2023-04-14T17:51:29.924Z,15.18
2023-04-14T17:54:00.201Z,14.82
2023-04-14T17:56:30.629Z,14.47
2023-04-14T17:58:58.704Z,14.07
2023-04-14T18:01:26.181Z,13.63
2023-04-14T18:03:53.693Z,13.46
2023-04-14T18:06:21.344Z,13.38
2023-04-14T18:08:48.700Z,13.12
2023-04-14T18:11:16.079Z,13.06
2023-04-14T18:13:44.895Z,13.01
2023-04-14T18:16:12.294Z,12.89
2023-04-14T18:18:40.474Z,12.78
2023-04-14T18:21:08.130Z,12.60
2023-04-14T18:23:35.504Z,12.45
2023-04-14T18:28:34.667Z,12.47
2023-04-14T18:31:04.123Z,12.20
2023-04-14T18:33:31.687Z,12.15
2023-04-14T18:36:00.332Z,11.87
2023-04-14T18:38:29.493Z,11.82
2023-04-14T18:41:02.142Z,11.74
2023-04-14T18:43:29.672Z,11.66
2023-04-14T18:45:57.225Z,11.51
2023-04-14T18:48:26.170Z,11.39
2023-04-14T18:50:59.096Z,11.21
2023-04-14T18:53:26.522Z,11.09
2023-04-14T18:55:54.237Z,11.01
2023-04-14T18:58:21.749Z,10.87
2023-04-14T19:00:49.485Z,10.78
2023-04-14T19:03:19.339Z,10.67
2023-04-14T19:05:49.772Z,10.47
2023-04-14T19:08:17.266Z,10.14
2023-04-14T19:10:46.715Z,10.16
2023-04-14T19:13:14.305Z,10.12
2023-04-14T19:15:44.283Z,10.15
2023-04-14T19:18:12.406Z,10.10
2023-04-14T19:20:39.772Z,10.07
2023-04-14T19:23:08.785Z,9.92
2023-04-14T19:25:38.557Z,9.81
2023-04-14T19:28:06.642Z,9.80
2023-04-14T19:30:34.242Z,9.63
2023-04-14T19:33:02.215Z,9.48
2023-04-14T19:35:31.607Z,9.36
2023-04-14T19:37:59.436Z,9.40
2023-04-14T19:40:28.949Z,9.37
2023-04-14T19:42:57.741Z,9.15
2023-04-14T19:45:25.103Z,9.08
2023-04-14T19:47:52.778Z,8.85
2023-04-14T19:50:20.242Z,8.77
2023-04-14T19:52:49.741Z,8.85
2023-04-14T19:55:17.776Z,8.91
2023-04-14T19:57:47.004Z,8.84
2023-04-14T20:00:15.967Z,8.66
2023-04-14T20:02:44.753Z,8.73
2023-04-14T20:05:12.622Z,8.80
2023-04-14T20:07:39.981Z,8.78
2023-04-14T20:10:09.766Z,8.79
2023-04-14T20:12:37.165Z,8.69
2023-04-14T20:15:07.519Z,8.59
2023-04-14T20:17:36.446Z,8.54
2023-04-14T20:20:06.062Z,8.45
2023-04-14T20:22:34.087Z,8.46
2023-04-14T20:25:01.470Z,8.22
2023-04-14T20:27:29.809Z,8.34
2023-04-14T20:29:57.963Z,8.23
2023-04-14T20:32:26.693Z,7.98
2023-04-14T20:34:54.144Z,7.91
2023-04-14T20:37:21.961Z,7.86
2023-04-14T20:39:49.633Z,7.78
2023-04-14T20:42:17.027Z,7.62
2023-04-14T20:44:44.388Z,7.51
2023-04-14T20:47:11.825Z,7.39
2023-04-14T20:49:40.531Z,7.29
2023-04-14T20:52:08.086Z,7.12
2023-04-14T20:54:35.422Z,7.06
2023-04-14T20:57:03.733Z,6.97
2023-04-14T20:59:31.351Z,6.89
2023-04-14T21:01:58.799Z,6.79
2023-04-14T21:04:26.690Z,6.76
2023-04-14T21:06:55.428Z,6.74
2023-04-14T21:09:24.859Z,6.75
2023-04-14T21:12:15.293Z,6.66
2023-04-14T21:15:31.116Z,6.53
2023-04-14T21:17:28.473Z,6.45
2023-04-14T21:19:55.941Z,6.43
2023-04-14T21:22:24.882Z,6.34
2023-04-14T21:24:52.265Z,6.23
2023-04-14T21:27:19.754Z,6.17
2023-04-14T21:29:47.123Z,6.24
2023-04-14T21:32:14.806Z,6.24
2023-04-14T21:34:42.231Z,6.22
2023-04-14T21:37:09.614Z,6.19
2023-04-14T21:39:38.701Z,6.13
2023-04-14T21:42:06.046Z,6.16
2023-04-14T21:44:33.469Z,6.16
2023-04-14T21:47:01.164Z,6.15
2023-04-14T21:49:28.543Z,6.09
2023-04-14T21:51:56.163Z,6.11
2023-04-14T21:54:23.632Z,6.07
2023-04-14T21:56:53.041Z,5.98
2023-04-14T21:59:20.389Z,5.98
2023-04-14T22:01:49.242Z,5.92
2023-04-14T22:04:25.238Z,5.88
2023-04-14T22:06:57.349Z,5.89
2023-04-14T22:09:24.887Z,5.71
2023-04-14T22:11:53.594Z,5.75
2023-04-14T22:14:21.451Z,5.64
2023-04-14T22:16:48.923Z,5.57
2023-04-14T22:19:16.591Z,5.49
2023-04-14T22:21:44.152Z,5.44
2023-04-14T22:24:11.511Z,5.42
2023-04-14T22:26:38.919Z,5.51
2023-04-14T22:29:08.846Z,5.42
2023-04-14T22:31:37.754Z,5.31
2023-04-14T22:34:05.409Z,5.39
2023-04-14T22:36:32.821Z,5.32
2023-04-14T22:39:00.312Z,5.20
2023-04-14T22:41:27.798Z,5.17
2023-04-14T22:43:55.363Z,5.17
2023-04-14T22:46:24.110Z,5.09
2023-04-14T22:48:51.506Z,5.24
2023-04-14T22:51:21.630Z,5.21
2023-04-14T22:53:49.098Z,5.37
2023-04-14T22:56:16.460Z,5.34
2023-04-14T22:58:43.831Z,5.37
2023-04-14T23:01:21.510Z,5.39
2023-04-14T23:03:52.599Z,5.49
2023-04-14T23:06:20.606Z,5.47
2023-04-14T23:08:48.313Z,5.42
2023-04-14T23:11:16.181Z,5.59
2023-04-14T23:13:44.361Z,5.65
2023-04-14T23:16:12.036Z,5.70
2023-04-14T23:18:39.995Z,5.76
2023-04-14T23:21:08.924Z,5.79
2023-04-14T23:23:36.283Z,5.86
2023-04-14T23:26:03.679Z,5.92
2023-04-14T23:28:31.115Z,5.92
2023-04-14T23:30:59.069Z,5.91
2023-04-14T23:33:26.498Z,5.89
2023-04-14T23:35:54.059Z,6.02
2023-04-14T23:38:22.745Z,5.96
2023-04-14T23:40:50.128Z,5.89
2023-04-14T23:43:17.602Z,5.89
2023-04-14T23:45:45.104Z,5.93
2023-04-14T23:48:12.783Z,5.89
2023-04-14T23:51:00.978Z,5.85
2023-04-14T23:53:29.745Z,5.90
2023-04-14T23:55:57.248Z,6.00
2023-04-14T23:58:26.925Z,6.13
